SWR338 LSZH-EGLL
Flight info
| Callsign | SWR338 |
|---|---|
| Flight time | 1h 15m |
| Altitude | 36000 |
| Route | VEBIT T10 TORPA DCT REKLA DCT RLP DCT ROTSI DCT KOTUN DCT NINAL DCT ABNUR DCT DIMAL DCT ALESO |
| Aircraft | B77W/H-SDE1E2E3FGHIJ2J3J4J5M1RWXY/LB1D1 |
Departure
| Time | 2026-05-07 22:43 |
|---|---|
| Airport | Zürich Airport (LSZH) |
Arrival
| Time | 2026-05-07 23:59 |
|---|---|
| Airport | London Heathrow Airport (EGLL) |
| Time | Latitude | Longitude | Altitude | Speed | Heading |
|---|---|---|---|---|---|
| 2026-05-07 22:38 | 47.45992 | 8.56321 | 1416 ft | 0 kts | 7° |
| 2026-05-07 22:41 | 47.45995 | 8.56321 | 1416 ft | 1 kts | 7° |
| 2026-05-07 22:41 | 47.46021 | 8.56326 | 1416 ft | 5 kts | 7° |
| 2026-05-07 22:41 | 47.46067 | 8.56340 | 1415 ft | 5 kts | 26° |
| 2026-05-07 22:41 | 47.46101 | 8.56373 | 1416 ft | 5 kts | 38° |
| 2026-05-07 22:42 | 47.46129 | 8.56409 | 1416 ft | 4 kts | 34° |
| 2026-05-07 22:42 | 47.46158 | 8.56406 | 1415 ft | 5 kts | 326° |
| 2026-05-07 22:42 | 47.46194 | 8.56358 | 1414 ft | 9 kts | 317° |
| 2026-05-07 22:42 | 47.46272 | 8.56251 | 1412 ft | 28 kts | 317° |
| 2026-05-07 22:43 | 47.46610 | 8.55791 | 1402 ft | 103 kts | 317° |
| 2026-05-07 22:43 | 47.47313 | 8.54832 | 1395 ft | 167 kts | 317° |
| 2026-05-07 22:43 | 47.48226 | 8.53590 | 1793 ft | 187 kts | 317° |
| 2026-05-07 22:43 | 47.49213 | 8.52334 | 2700 ft | 190 kts | 326° |
| 2026-05-07 22:44 | 47.50320 | 8.51302 | 3356 ft | 194 kts | 331° |
| 2026-05-07 22:44 | 47.51495 | 8.50293 | 3927 ft | 203 kts | 332° |
| 2026-05-07 22:44 | 47.52738 | 8.49185 | 4479 ft | 215 kts | 324° |
| 2026-05-07 22:44 | 47.53716 | 8.47487 | 5031 ft | 225 kts | 295° |
| 2026-05-07 22:45 | 47.54065 | 8.45229 | 5684 ft | 229 kts | 266° |
| 2026-05-07 22:45 | 47.53652 | 8.43002 | 6400 ft | 228 kts | 238° |
| 2026-05-07 22:45 | 47.52736 | 8.41134 | 7147 ft | 228 kts | 228° |
| 2026-05-07 22:45 | 47.51534 | 8.39660 | 7881 ft | 228 kts | 209° |
| 2026-05-07 22:46 | 47.50086 | 8.38683 | 8537 ft | 234 kts | 201° |
| 2026-05-07 22:46 | 47.48492 | 8.37876 | 8938 ft | 251 kts | 198° |
| 2026-05-07 22:46 | 47.46752 | 8.37171 | 9376 ft | 268 kts | 195° |
| 2026-05-07 22:46 | 47.44897 | 8.36539 | 9963 ft | 278 kts | 194° |
| 2026-05-07 22:47 | 47.43010 | 8.35831 | 10585 ft | 287 kts | 200° |
| 2026-05-07 22:47 | 47.41143 | 8.34681 | 10984 ft | 303 kts | 208° |
| 2026-05-07 22:47 | 47.39301 | 8.32954 | 11459 ft | 319 kts | 218° |
| 2026-05-07 22:47 | 47.37635 | 8.30681 | 11928 ft | 335 kts | 228° |
| 2026-05-07 22:48 | 47.36232 | 8.27879 | 12453 ft | 350 kts | 239° |
| 2026-05-07 22:48 | 47.35118 | 8.24602 | 13045 ft | 365 kts | 245° |
| 2026-05-07 22:48 | 47.34022 | 8.21184 | 13764 ft | 378 kts | 244° |
| 2026-05-07 22:48 | 47.32836 | 8.17670 | 14655 ft | 385 kts | 243° |
| 2026-05-07 22:49 | 47.31612 | 8.14134 | 15547 ft | 394 kts | 243° |
| 2026-05-07 22:49 | 47.30382 | 8.10612 | 16805 ft | 394 kts | 243° |
| 2026-05-07 22:49 | 47.29135 | 8.07035 | 17954 ft | 396 kts | 245° |
| 2026-05-07 22:49 | 47.28136 | 8.03266 | 18861 ft | 403 kts | 254° |
| 2026-05-07 22:50 | 47.27552 | 7.99228 | 19780 ft | 410 kts | 263° |
| 2026-05-07 22:50 | 47.27428 | 7.95042 | 20751 ft | 415 kts | 272° |
| 2026-05-07 22:50 | 47.27736 | 7.90807 | 21696 ft | 421 kts | 277° |
| 2026-05-07 22:50 | 47.28159 | 7.86538 | 22626 ft | 427 kts | 278° |
| 2026-05-07 22:51 | 47.28590 | 7.82186 | 23513 ft | 432 kts | 277° |
| 2026-05-07 22:51 | 47.29017 | 7.77812 | 24378 ft | 437 kts | 277° |
| 2026-05-07 22:51 | 47.29445 | 7.73372 | 25255 ft | 441 kts | 277° |
| 2026-05-07 22:51 | 47.29828 | 7.69364 | 25982 ft | 445 kts | 277° |
| 2026-05-07 22:52 | 47.30267 | 7.64813 | 26774 ft | 450 kts | 279° |
| 2026-05-07 22:52 | 47.30994 | 7.60340 | 27517 ft | 456 kts | 285° |
| 2026-05-07 22:52 | 47.31947 | 7.55917 | 28281 ft | 460 kts | 287° |
| 2026-05-07 22:52 | 47.32928 | 7.51443 | 29015 ft | 465 kts | 287° |
| 2026-05-07 22:53 | 47.33924 | 7.46883 | 29805 ft | 468 kts | 287° |
| 2026-05-07 22:53 | 47.34922 | 7.42299 | 30783 ft | 465 kts | 286° |
| 2026-05-07 22:53 | 47.35902 | 7.37788 | 31891 ft | 459 kts | 286° |
| 2026-05-07 22:53 | 47.36868 | 7.33324 | 32861 ft | 454 kts | 285° |
| 2026-05-07 22:54 | 47.37817 | 7.28924 | 33661 ft | 451 kts | 285° |
| 2026-05-07 22:54 | 47.38765 | 7.24516 | 34375 ft | 450 kts | 285° |
| 2026-05-07 22:54 | 47.39695 | 7.20179 | 34913 ft | 449 kts | 285° |
| 2026-05-07 22:54 | 47.40624 | 7.15760 | 35370 ft | 449 kts | 283° |
| 2026-05-07 22:55 | 47.41333 | 7.11305 | 35800 ft | 448 kts | 281° |
| 2026-05-07 22:55 | 47.41994 | 7.06826 | 35993 ft | 452 kts | 280° |
| 2026-05-07 22:55 | 47.42658 | 7.02298 | 36040 ft | 451 kts | 280° |
| 2026-05-07 22:56 | 47.43973 | 6.93295 | 36044 ft | 448 kts | 280° |
| 2026-05-07 22:56 | 47.45277 | 6.84335 | 36038 ft | 449 kts | 280° |
| 2026-05-07 22:57 | 47.46582 | 6.75312 | 36051 ft | 449 kts | 280° |
| 2026-05-07 22:57 | 47.47858 | 6.66294 | 36046 ft | 449 kts | 278° |
| 2026-05-07 22:58 | 47.48580 | 6.57162 | 36044 ft | 449 kts | 275° |
| 2026-05-07 22:58 | 47.49234 | 6.48010 | 36044 ft | 449 kts | 275° |
| 2026-05-07 22:59 | 47.49882 | 6.38862 | 36035 ft | 450 kts | 275° |
| 2026-05-07 22:59 | 47.50523 | 6.29727 | 36046 ft | 449 kts | 274° |
| 2026-05-07 23:00 | 47.51161 | 6.20538 | 36047 ft | 449 kts | 274° |
| 2026-05-07 23:00 | 47.51791 | 6.11347 | 36047 ft | 450 kts | 274° |
| 2026-05-07 23:01 | 47.52409 | 6.02234 | 36045 ft | 449 kts | 274° |
| 2026-05-07 23:01 | 47.53104 | 5.93033 | 36041 ft | 450 kts | 279° |
| 2026-05-07 23:02 | 47.55092 | 5.84265 | 36044 ft | 455 kts | 295° |
| 2026-05-07 23:02 | 47.58719 | 5.76552 | 36042 ft | 461 kts | 309° |
| 2026-05-07 23:03 | 47.63081 | 5.69601 | 36045 ft | 462 kts | 310° |
| 2026-05-07 23:03 | 47.67411 | 5.62674 | 36045 ft | 462 kts | 310° |
| 2026-05-07 23:04 | 47.71757 | 5.55669 | 36041 ft | 462 kts | 310° |
| 2026-05-07 23:04 | 47.76089 | 5.48652 | 36042 ft | 462 kts | 310° |
| 2026-05-07 23:05 | 47.80418 | 5.41612 | 36043 ft | 462 kts | 310° |
| 2026-05-07 23:05 | 47.84754 | 5.34537 | 36042 ft | 462 kts | 309° |
| 2026-05-07 23:06 | 47.89063 | 5.27484 | 36043 ft | 461 kts | 309° |
| 2026-05-07 23:06 | 47.93375 | 5.20406 | 36044 ft | 461 kts | 309° |
| 2026-05-07 23:07 | 47.97656 | 5.13360 | 36052 ft | 461 kts | 309° |
| 2026-05-07 23:07 | 48.01955 | 5.06264 | 36053 ft | 461 kts | 309° |
| 2026-05-07 23:08 | 48.06251 | 4.99155 | 36048 ft | 462 kts | 309° |
| 2026-05-07 23:08 | 48.10512 | 4.92083 | 36043 ft | 462 kts | 309° |
| 2026-05-07 23:09 | 48.14838 | 4.84885 | 36039 ft | 462 kts | 309° |
| 2026-05-07 23:09 | 48.19126 | 4.77732 | 36040 ft | 463 kts | 309° |
| 2026-05-07 23:10 | 48.23389 | 4.70601 | 36037 ft | 462 kts | 309° |
| 2026-05-07 23:10 | 48.27680 | 4.63401 | 36036 ft | 463 kts | 309° |
| 2026-05-07 23:11 | 48.31946 | 4.56226 | 36041 ft | 463 kts | 309° |
| 2026-05-07 23:11 | 48.36231 | 4.48998 | 36041 ft | 463 kts | 309° |
| 2026-05-07 23:12 | 48.40515 | 4.41752 | 36037 ft | 463 kts | 309° |
| 2026-05-07 23:12 | 48.44784 | 4.34512 | 36039 ft | 463 kts | 308° |
| 2026-05-07 23:13 | 48.49052 | 4.27254 | 36044 ft | 463 kts | 308° |
| 2026-05-07 23:13 | 48.53312 | 4.19989 | 36042 ft | 463 kts | 308° |
| 2026-05-07 23:14 | 48.57561 | 4.12723 | 36045 ft | 462 kts | 308° |
| 2026-05-07 23:14 | 48.61819 | 4.05421 | 36045 ft | 463 kts | 308° |
| 2026-05-07 23:15 | 48.66079 | 3.98095 | 36048 ft | 464 kts | 308° |
| 2026-05-07 23:15 | 48.70311 | 3.90799 | 36046 ft | 464 kts | 308° |
| 2026-05-07 23:16 | 48.74639 | 3.83598 | 36044 ft | 465 kts | 313° |
| 2026-05-07 23:16 | 48.79340 | 3.76716 | 36040 ft | 467 kts | 313° |
| 2026-05-07 23:17 | 48.83961 | 3.69901 | 36041 ft | 466 kts | 313° |
| 2026-05-07 23:17 | 48.88596 | 3.63012 | 36040 ft | 465 kts | 313° |
| 2026-05-07 23:18 | 48.93184 | 3.56156 | 36040 ft | 466 kts | 313° |
| 2026-05-07 23:18 | 48.97789 | 3.49248 | 36041 ft | 466 kts | 313° |
| 2026-05-07 23:19 | 49.02419 | 3.42277 | 36040 ft | 467 kts | 313° |
| 2026-05-07 23:19 | 49.07020 | 3.35327 | 36043 ft | 467 kts | 313° |
| 2026-05-07 23:20 | 49.11618 | 3.28362 | 36045 ft | 467 kts | 312° |
| 2026-05-07 23:20 | 49.16169 | 3.21447 | 36044 ft | 468 kts | 312° |
| 2026-05-07 23:21 | 49.20824 | 3.14356 | 36044 ft | 468 kts | 312° |
| 2026-05-07 23:21 | 49.25408 | 3.07352 | 36045 ft | 467 kts | 312° |
| 2026-05-07 23:22 | 49.29991 | 3.00330 | 36045 ft | 467 kts | 312° |
| 2026-05-07 23:22 | 49.34578 | 2.93282 | 36046 ft | 468 kts | 312° |
| 2026-05-07 23:23 | 49.39163 | 2.86219 | 36045 ft | 468 kts | 312° |
| 2026-05-07 23:23 | 49.43751 | 2.79130 | 36047 ft | 468 kts | 312° |
| 2026-05-07 23:24 | 49.48311 | 2.72065 | 36044 ft | 468 kts | 312° |
| 2026-05-07 23:24 | 49.52876 | 2.64972 | 36044 ft | 468 kts | 312° |
| 2026-05-07 23:25 | 49.57452 | 2.57842 | 36047 ft | 468 kts | 312° |
| 2026-05-07 23:25 | 49.62220 | 2.51006 | 36045 ft | 471 kts | 320° |
| 2026-05-07 23:26 | 49.67403 | 2.44942 | 36047 ft | 471 kts | 321° |
| 2026-05-07 23:26 | 49.72630 | 2.38825 | 36043 ft | 472 kts | 320° |
| 2026-05-07 23:27 | 49.80441 | 2.29633 | 36045 ft | 471 kts | 320° |
| 2026-05-07 23:27 | 49.85630 | 2.23499 | 36050 ft | 472 kts | 320° |
| 2026-05-07 23:28 | 49.90849 | 2.17310 | 36056 ft | 471 kts | 320° |
| 2026-05-07 23:28 | 49.96009 | 2.11173 | 36049 ft | 471 kts | 320° |
| 2026-05-07 23:29 | 50.01219 | 2.04959 | 36052 ft | 471 kts | 320° |
| 2026-05-07 23:29 | 50.06368 | 1.98800 | 36054 ft | 472 kts | 320° |
| 2026-05-07 23:30 | 50.11588 | 1.92538 | 36052 ft | 472 kts | 320° |
| 2026-05-07 23:30 | 50.16740 | 1.86300 | 36044 ft | 471 kts | 317° |
| 2026-05-07 23:31 | 50.21457 | 1.79314 | 36048 ft | 469 kts | 313° |
| 2026-05-07 23:31 | 50.23802 | 1.75740 | 36357 ft | 469 kts | 313° |
| 2026-05-07 23:31 | 50.26105 | 1.72224 | 36002 ft | 469 kts | 313° |
| 2026-05-07 23:32 | 50.30757 | 1.65111 | 36049 ft | 470 kts | 313° |
| 2026-05-07 23:32 | 50.35397 | 1.57999 | 35899 ft | 463 kts | 313° |
| 2026-05-07 23:33 | 50.37685 | 1.54484 | 35317 ft | 470 kts | 313° |
| 2026-05-07 23:33 | 50.40029 | 1.50876 | 34245 ft | 480 kts | 313° |
| 2026-05-07 23:33 | 50.42383 | 1.47249 | 33056 ft | 478 kts | 313° |
| 2026-05-07 23:33 | 50.44767 | 1.43572 | 32271 ft | 478 kts | 313° |
| 2026-05-07 23:34 | 50.47118 | 1.39939 | 31379 ft | 480 kts | 314° |
| 2026-05-07 23:34 | 50.49493 | 1.36265 | 30562 ft | 479 kts | 314° |
| 2026-05-07 23:34 | 50.51750 | 1.32558 | 30081 ft | 471 kts | 310° |
| 2026-05-07 23:34 | 50.53950 | 1.28797 | 29580 ft | 464 kts | 310° |
| 2026-05-07 23:35 | 50.56117 | 1.25086 | 29037 ft | 459 kts | 310° |
| 2026-05-07 23:35 | 50.57761 | 1.22272 | 28612 ft | 455 kts | 310° |
| 2026-05-07 23:35 | 50.59922 | 1.18757 | 28063 ft | 450 kts | 313° |
| 2026-05-07 23:35 | 50.62122 | 1.15301 | 27517 ft | 446 kts | 313° |
| 2026-05-07 23:36 | 50.64307 | 1.11863 | 26957 ft | 441 kts | 313° |
| 2026-05-07 23:36 | 50.66461 | 1.08468 | 26406 ft | 437 kts | 313° |
| 2026-05-07 23:36 | 50.68570 | 1.05136 | 25863 ft | 432 kts | 313° |
| 2026-05-07 23:36 | 50.70687 | 1.01782 | 25311 ft | 428 kts | 313° |
| 2026-05-07 23:37 | 50.72761 | 0.98493 | 24763 ft | 424 kts | 313° |
| 2026-05-07 23:37 | 50.74818 | 0.95224 | 24221 ft | 420 kts | 313° |
| 2026-05-07 23:37 | 50.76870 | 0.91959 | 23662 ft | 416 kts | 313° |
| 2026-05-07 23:37 | 50.78900 | 0.88722 | 23111 ft | 412 kts | 313° |
| 2026-05-07 23:38 | 50.80900 | 0.85530 | 22582 ft | 416 kts | 313° |
| 2026-05-07 23:38 | 50.82954 | 0.82244 | 22000 ft | 422 kts | 313° |
| 2026-05-07 23:38 | 50.84987 | 0.78990 | 21430 ft | 419 kts | 313° |
| 2026-05-07 23:38 | 50.87035 | 0.75707 | 20866 ft | 415 kts | 313° |
| 2026-05-07 23:39 | 50.89045 | 0.72481 | 20284 ft | 411 kts | 313° |
| 2026-05-07 23:39 | 50.91008 | 0.69328 | 19731 ft | 407 kts | 313° |
| 2026-05-07 23:39 | 50.92981 | 0.66153 | 19168 ft | 403 kts | 313° |
| 2026-05-07 23:39 | 50.94944 | 0.62989 | 18590 ft | 399 kts | 313° |
| 2026-05-07 23:40 | 50.96880 | 0.59865 | 18036 ft | 396 kts | 313° |
| 2026-05-07 23:40 | 50.98783 | 0.56791 | 17445 ft | 393 kts | 313° |
| 2026-05-07 23:40 | 51.00681 | 0.53721 | 16839 ft | 391 kts | 313° |
| 2026-05-07 23:40 | 51.02567 | 0.50667 | 16259 ft | 388 kts | 313° |
| 2026-05-07 23:41 | 51.04446 | 0.47620 | 15677 ft | 386 kts | 313° |
| 2026-05-07 23:41 | 51.06316 | 0.44583 | 15093 ft | 383 kts | 313° |
| 2026-05-07 23:41 | 51.08192 | 0.41613 | 14530 ft | 380 kts | 315° |
| 2026-05-07 23:41 | 51.10049 | 0.38800 | 13955 ft | 378 kts | 315° |
| 2026-05-07 23:42 | 51.11968 | 0.35892 | 13374 ft | 371 kts | 315° |
| 2026-05-07 23:42 | 51.13828 | 0.33066 | 12839 ft | 363 kts | 314° |
| 2026-05-07 23:42 | 51.15615 | 0.30344 | 12296 ft | 355 kts | 314° |
| 2026-05-07 23:42 | 51.17380 | 0.27650 | 11755 ft | 348 kts | 314° |
| 2026-05-07 23:43 | 51.19112 | 0.25001 | 11225 ft | 340 kts | 314° |
| 2026-05-07 23:43 | 51.20805 | 0.22405 | 10714 ft | 333 kts | 315° |
| 2026-05-07 23:43 | 51.22432 | 0.19909 | 10226 ft | 321 kts | 314° |
| 2026-05-07 23:43 | 51.24012 | 0.17481 | 9764 ft | 309 kts | 315° |
| 2026-05-07 23:44 | 51.25528 | 0.15147 | 9383 ft | 296 kts | 315° |
| 2026-05-07 23:44 | 51.26983 | 0.12908 | 9242 ft | 280 kts | 315° |
| 2026-05-07 23:44 | 51.28354 | 0.10793 | 9024 ft | 269 kts | 315° |
| 2026-05-07 23:44 | 51.29678 | 0.08750 | 8581 ft | 267 kts | 315° |
| 2026-05-07 23:45 | 51.31015 | 0.06685 | 8045 ft | 267 kts | 315° |
| 2026-05-07 23:45 | 51.32298 | 0.04596 | 7509 ft | 266 kts | 306° |
| 2026-05-07 23:45 | 51.33050 | 0.01920 | 7057 ft | 259 kts | 281° |
| 2026-05-07 23:45 | 51.33313 | -0.00897 | 7013 ft | 258 kts | 276° |
| 2026-05-07 23:46 | 51.33479 | -0.03698 | 6994 ft | 254 kts | 275° |
| 2026-05-07 23:46 | 51.33632 | -0.06531 | 6992 ft | 254 kts | 275° |
| 2026-05-07 23:46 | 51.33780 | -0.09308 | 6991 ft | 254 kts | 275° |
| 2026-05-07 23:46 | 51.33931 | -0.12134 | 6990 ft | 254 kts | 275° |
| 2026-05-07 23:47 | 51.34080 | -0.14946 | 6988 ft | 254 kts | 275° |
| 2026-05-07 23:47 | 51.34228 | -0.17752 | 6991 ft | 254 kts | 275° |
| 2026-05-07 23:47 | 51.34378 | -0.20575 | 6990 ft | 254 kts | 275° |
| 2026-05-07 23:47 | 51.34525 | -0.23391 | 6988 ft | 254 kts | 275° |
| 2026-05-07 23:48 | 51.34670 | -0.26170 | 6986 ft | 253 kts | 275° |
| 2026-05-07 23:48 | 51.34816 | -0.28978 | 6985 ft | 253 kts | 275° |
| 2026-05-07 23:48 | 51.34963 | -0.31803 | 6986 ft | 253 kts | 275° |
| 2026-05-07 23:48 | 51.35106 | -0.34592 | 6982 ft | 254 kts | 275° |
| 2026-05-07 23:49 | 51.35251 | -0.37416 | 6989 ft | 254 kts | 275° |
| 2026-05-07 23:49 | 51.35393 | -0.40198 | 6986 ft | 254 kts | 275° |
| 2026-05-07 23:49 | 51.35537 | -0.43030 | 6986 ft | 254 kts | 275° |
| 2026-05-07 23:49 | 51.35676 | -0.45786 | 6984 ft | 247 kts | 275° |
| 2026-05-07 23:50 | 51.35813 | -0.48517 | 6983 ft | 243 kts | 275° |
| 2026-05-07 23:50 | 51.35947 | -0.51194 | 6984 ft | 242 kts | 275° |
| 2026-05-07 23:50 | 51.36081 | -0.53877 | 6992 ft | 242 kts | 275° |
| 2026-05-07 23:50 | 51.36212 | -0.56533 | 6990 ft | 242 kts | 275° |
| 2026-05-07 23:51 | 51.36346 | -0.59230 | 6985 ft | 242 kts | 275° |
| 2026-05-07 23:51 | 51.36477 | -0.61906 | 6988 ft | 240 kts | 275° |
| 2026-05-07 23:51 | 51.36607 | -0.64564 | 6991 ft | 239 kts | 275° |
| 2026-05-07 23:51 | 51.36737 | -0.67200 | 6918 ft | 242 kts | 274° |
| 2026-05-07 23:52 | 51.36871 | -0.69889 | 6598 ft | 244 kts | 274° |
| 2026-05-07 23:52 | 51.37006 | -0.72601 | 6297 ft | 244 kts | 274° |
| 2026-05-07 23:52 | 51.37222 | -0.75304 | 5950 ft | 244 kts | 287° |
| 2026-05-07 23:52 | 51.38103 | -0.77575 | 5577 ft | 243 kts | 317° |
| 2026-05-07 23:53 | 51.39558 | -0.78834 | 5173 ft | 239 kts | 348° |
| 2026-05-07 23:53 | 51.41193 | -0.78974 | 4732 ft | 239 kts | 2° |
| 2026-05-07 23:53 | 51.42866 | -0.78932 | 4363 ft | 237 kts | 1° |
| 2026-05-07 23:53 | 51.44470 | -0.78685 | 4018 ft | 232 kts | 20° |
| 2026-05-07 23:54 | 51.45793 | -0.77348 | 3656 ft | 223 kts | 44° |
| 2026-05-07 23:54 | 51.46820 | -0.75579 | 3311 ft | 212 kts | 59° |
| 2026-05-07 23:54 | 51.47347 | -0.73456 | 2959 ft | 203 kts | 78° |
| 2026-05-07 23:54 | 51.47593 | -0.71352 | 2835 ft | 183 kts | 84° |
| 2026-05-07 23:55 | 51.47686 | -0.69383 | 2596 ft | 172 kts | 91° |
| 2026-05-07 23:55 | 51.47680 | -0.67518 | 2407 ft | 161 kts | 93° |
| 2026-05-07 23:55 | 51.47680 | -0.65790 | 2200 ft | 151 kts | 92° |
| 2026-05-07 23:55 | 51.47686 | -0.64158 | 2006 ft | 144 kts | 92° |
| 2026-05-07 23:56 | 51.47692 | -0.62567 | 1831 ft | 139 kts | 92° |
| 2026-05-07 23:56 | 51.47698 | -0.61035 | 1656 ft | 137 kts | 93° |
| 2026-05-07 23:56 | 51.47704 | -0.59509 | 1478 ft | 136 kts | 92° |
| 2026-05-07 23:56 | 51.47708 | -0.58010 | 1302 ft | 136 kts | 92° |
| 2026-05-07 23:57 | 51.47710 | -0.56484 | 1125 ft | 136 kts | 93° |
| 2026-05-07 23:57 | 51.47710 | -0.54982 | 952 ft | 137 kts | 91° |
| 2026-05-07 23:57 | 51.47720 | -0.53466 | 754 ft | 137 kts | 91° |
| 2026-05-07 23:57 | 51.47731 | -0.51940 | 564 ft | 137 kts | 90° |
| 2026-05-07 23:58 | 51.47738 | -0.50414 | 357 ft | 137 kts | 91° |
| 2026-05-07 23:58 | 51.47748 | -0.48889 | 152 ft | 137 kts | 90° |
| 2026-05-07 23:58 | 51.47753 | -0.47420 | 95 ft | 117 kts | 89° |
| 2026-05-07 23:58 | 51.47757 | -0.46312 | 94 ft | 78 kts | 89° |
| 2026-05-07 23:59 | 51.47758 | -0.45697 | 94 ft | 22 kts | 88° |
| 2026-05-07 23:59 | 51.47759 | -0.45557 | 94 ft | 8 kts | 91° |
| 2026-05-07 23:59 | 51.47750 | -0.45501 | 94 ft | 4 kts | 131° |